createdAt,value
2023-02-02T00:02:16.769Z,100613.44
2023-02-02T00:04:43.780Z,100606.94
2023-02-02T00:07:10.807Z,100602.20
2023-02-02T00:09:37.774Z,100600.65
2023-02-02T00:12:05.460Z,100599.81
2023-02-02T00:14:33.608Z,100598.44
2023-02-02T00:17:01.326Z,100597.05
2023-02-02T00:19:33.035Z,100590.91
2023-02-02T00:22:01.903Z,100585.59
2023-02-02T00:24:28.937Z,100580.62
2023-02-02T00:26:56.925Z,100580.35
2023-02-02T00:29:26.025Z,100582.00
2023-02-02T00:31:53.751Z,100581.53
2023-02-02T00:34:21.643Z,100577.05
2023-02-02T00:36:49.417Z,100574.86
2023-02-02T00:39:18.759Z,100573.30
2023-02-02T00:41:46.344Z,100572.30
2023-02-02T00:44:34.160Z,100572.80
2023-02-02T00:47:01.725Z,100569.98
2023-02-02T00:49:29.153Z,100569.43
2023-02-02T00:51:56.157Z,100568.01
2023-02-02T00:54:23.948Z,100564.66
2023-02-02T00:56:50.918Z,100559.17
2023-02-02T00:59:18.241Z,100560.50
2023-02-02T01:01:46.082Z,100561.12
2023-02-02T01:04:14.781Z,100558.59
2023-02-02T01:06:43.189Z,100556.79
2023-02-02T01:09:10.543Z,100552.44
2023-02-02T01:11:38.276Z,100557.35
2023-02-02T01:14:05.691Z,100562.44
2023-02-02T01:16:33.183Z,100571.23
2023-02-02T01:19:01.558Z,100565.30
2023-02-02T01:21:29.178Z,100569.63
2023-02-02T01:23:56.901Z,100569.96
2023-02-02T01:26:24.317Z,100563.25
2023-02-02T01:28:51.392Z,100563.06
2023-02-02T01:31:20.307Z,100565.44
2023-02-02T01:33:48.167Z,100568.27
2023-02-02T01:36:20.597Z,100571.59
2023-02-02T01:38:48.017Z,100572.64
2023-02-02T01:41:20.828Z,100573.58
2023-02-02T01:43:48.744Z,100570.50
2023-02-02T01:46:18.281Z,100567.41
2023-02-02T01:48:48.165Z,100566.42
2023-02-02T01:51:18.317Z,100561.33
2023-02-02T01:53:45.357Z,100561.00
2023-02-02T01:56:15.136Z,100560.91
2023-02-02T01:58:42.118Z,100553.93
2023-02-02T02:01:11.741Z,100555.33
2023-02-02T02:03:39.526Z,100552.13
2023-02-02T02:06:12.377Z,100554.23
2023-02-02T02:08:49.034Z,100553.34
2023-02-02T02:11:16.089Z,100547.13
2023-02-02T02:14:01.920Z,100544.11
2023-02-02T02:16:29.143Z,100539.46
2023-02-02T02:18:59.313Z,100544.27
2023-02-02T02:22:07.000Z,100550.96
2023-02-02T02:25:27.957Z,100552.67
2023-02-02T02:28:18.372Z,100551.80
2023-02-02T02:31:00.409Z,100550.83
2023-02-02T02:33:57.680Z,100559.55
2023-02-02T02:36:40.499Z,100557.67
2023-02-02T02:39:17.375Z,100563.15
2023-02-02T02:41:47.926Z,100564.36
2023-02-02T02:44:16.278Z,100564.14
2023-02-02T02:46:43.804Z,100570.20
2023-02-02T02:49:11.461Z,100570.45
2023-02-02T02:51:56.497Z,100568.63
2023-02-02T02:54:38.129Z,100566.98
2023-02-02T02:57:34.270Z,100568.31
2023-02-02T03:00:26.813Z,100562.63
2023-02-02T03:03:20.098Z,100561.98
2023-02-02T03:06:08.012Z,100557.48
2023-02-02T03:08:40.180Z,100559.81
2023-02-02T03:11:08.476Z,100561.09
2023-02-02T03:13:35.566Z,100564.80
2023-02-02T03:16:03.005Z,100563.05
2023-02-02T03:18:30.789Z,100562.20
2023-02-02T03:20:58.053Z,100560.84
2023-02-02T03:23:25.214Z,100567.72
2023-02-02T03:25:52.234Z,100573.67
2023-02-02T03:28:19.450Z,100573.64
2023-02-02T03:30:46.620Z,100567.98
2023-02-02T03:33:13.907Z,100565.65
2023-02-02T03:35:41.102Z,100567.17
2023-02-02T03:38:08.528Z,100569.59
2023-02-02T03:40:36.305Z,100572.02
2023-02-02T03:43:03.390Z,100576.26
2023-02-02T03:45:31.720Z,100578.58
2023-02-02T03:47:58.734Z,100575.05
2023-02-02T03:50:25.766Z,100571.34
2023-02-02T03:52:53.452Z,100572.20
2023-02-02T03:55:21.109Z,100571.88
2023-02-02T03:57:48.251Z,100568.52
2023-02-02T04:00:15.462Z,100571.84
2023-02-02T04:02:42.548Z,100571.85
2023-02-02T04:05:09.723Z,100579.42
2023-02-02T04:07:36.789Z,100590.67
2023-02-02T04:10:04.771Z,100583.54
2023-02-02T04:12:32.264Z,100583.09
2023-02-02T04:14:59.264Z,100583.52
2023-02-02T04:17:26.256Z,100581.12
2023-02-02T04:19:57.593Z,100578.02
2023-02-02T04:22:25.499Z,100575.56
2023-02-02T04:24:52.614Z,100574.13
2023-02-02T04:27:19.780Z,100574.24
2023-02-02T04:29:46.990Z,100572.95
2023-02-02T04:32:15.146Z,100570.79
2023-02-02T04:34:42.345Z,100572.83
2023-02-02T04:37:10.407Z,100575.40
2023-02-02T04:39:37.416Z,100570.80
2023-02-02T04:42:04.845Z,100572.35
2023-02-02T04:44:31.997Z,100578.61
2023-02-02T04:47:01.415Z,100580.45
2023-02-02T04:49:28.553Z,100583.52
2023-02-02T04:51:55.722Z,100583.11
2023-02-02T04:54:22.894Z,100579.94
2023-02-02T04:56:50.017Z,100582.56
2023-02-02T04:59:17.124Z,100582.77
2023-02-02T05:01:44.323Z,100578.26
2023-02-02T05:04:11.549Z,100580.91
2023-02-02T05:06:38.728Z,100582.70
2023-02-02T05:09:06.164Z,100586.26
2023-02-02T05:11:33.309Z,100589.45
2023-02-02T05:14:03.249Z,100591.91
2023-02-02T05:16:30.382Z,100599.28
2023-02-02T05:18:58.842Z,100595.64
2023-02-02T05:21:26.343Z,100602.88
2023-02-02T05:23:53.931Z,100609.06
2023-02-02T05:26:22.578Z,100615.23
2023-02-02T05:28:49.959Z,100617.36
2023-02-02T05:31:17.144Z,100623.22
2023-02-02T05:33:44.276Z,100624.15
2023-02-02T05:36:11.775Z,100622.14
2023-02-02T05:38:38.952Z,100617.88
2023-02-02T05:41:06.138Z,100620.56
2023-02-02T05:43:33.238Z,100625.48
2023-02-02T05:46:00.630Z,100624.64
2023-02-02T05:48:27.934Z,100624.67
2023-02-02T05:51:37.583Z,100622.74
2023-02-02T05:54:04.692Z,100622.70
2023-02-02T05:56:31.654Z,100625.09
2023-02-02T05:58:59.704Z,100626.27
2023-02-02T06:01:26.792Z,100625.52
2023-02-02T06:03:53.911Z,100629.30
2023-02-02T06:06:22.043Z,100629.41
2023-02-02T06:08:49.445Z,100632.14
2023-02-02T06:11:17.579Z,100636.80
2023-02-02T06:13:46.029Z,100634.46
2023-02-02T06:16:13.278Z,100632.77
2023-02-02T06:18:40.744Z,100636.35
2023-02-02T06:21:09.454Z,100638.71
2023-02-02T06:23:37.387Z,100643.05
2023-02-02T06:26:04.875Z,100639.35
2023-02-02T06:28:32.207Z,100635.10
2023-02-02T06:31:06.759Z,100635.40
2023-02-02T06:33:35.080Z,100637.08
2023-02-02T06:36:02.934Z,100639.99
2023-02-02T06:38:31.004Z,100642.71
2023-02-02T06:41:01.735Z,100645.40
2023-02-02T06:43:29.327Z,100644.27
2023-02-02T06:45:57.820Z,100647.84
2023-02-02T06:48:25.350Z,100649.34
2023-02-02T06:50:53.392Z,100649.73
2023-02-02T06:53:23.224Z,100647.52
2023-02-02T06:55:54.471Z,100646.86
2023-02-02T06:58:21.834Z,100650.76
2023-02-02T07:00:48.842Z,100649.34
2023-02-02T07:03:16.227Z,100651.58
2023-02-02T07:05:44.062Z,100661.01
2023-02-02T07:08:11.227Z,100662.09
2023-02-02T07:11:13.423Z,100663.65
2023-02-02T07:13:26.146Z,100663.83
2023-02-02T07:15:56.568Z,100660.48
2023-02-02T07:18:23.721Z,100660.62
2023-02-02T07:20:50.712Z,100657.17
2023-02-02T07:23:17.766Z,100655.66
2023-02-02T07:25:46.140Z,100656.45
2023-02-02T07:28:13.483Z,100662.96
2023-02-02T07:30:40.498Z,100664.02
2023-02-02T07:33:07.579Z,100665.79
2023-02-02T07:35:34.647Z,100661.21
2023-02-02T07:38:02.660Z,100661.70
2023-02-02T07:40:29.736Z,100664.21
2023-02-02T07:43:00.011Z,100663.86
2023-02-02T07:45:28.161Z,100662.23
2023-02-02T07:47:56.865Z,100656.77
2023-02-02T07:50:24.854Z,100656.08
2023-02-02T07:52:52.219Z,100661.70
2023-02-02T07:55:19.563Z,100660.16
2023-02-02T07:57:46.628Z,100660.91
2023-02-02T08:00:13.878Z,100664.82
2023-02-02T08:02:41.033Z,100659.05
2023-02-02T08:05:08.552Z,100664.59
2023-02-02T08:07:36.622Z,100662.70
2023-02-02T08:10:05.648Z,100662.19
2023-02-02T08:12:33.315Z,100663.59
2023-02-02T08:15:00.788Z,100661.52
2023-02-02T08:17:27.775Z,100660.91
2023-02-02T08:19:54.904Z,100666.61
2023-02-02T08:22:21.962Z,100662.20
2023-02-02T08:24:49.255Z,100667.37
2023-02-02T08:27:16.573Z,100663.25
2023-02-02T08:29:43.645Z,100666.34
2023-02-02T08:32:11.326Z,100661.58
2023-02-02T08:34:40.364Z,100660.95
2023-02-02T08:37:07.539Z,100663.42
2023-02-02T08:39:35.661Z,100666.55
2023-02-02T08:42:02.764Z,100665.98
2023-02-02T08:46:00.153Z,100663.80
2023-02-02T08:47:17.049Z,100667.70
2023-02-02T08:49:44.695Z,100665.33
2023-02-02T08:52:12.369Z,100663.34
2023-02-02T08:54:39.627Z,100662.77
2023-02-02T08:57:07.244Z,100656.95
2023-02-02T08:59:34.626Z,100655.50
2023-02-02T09:02:01.963Z,100652.77
2023-02-02T09:04:29.248Z,100652.95
2023-02-02T09:06:56.487Z,100648.02
2023-02-02T09:09:23.761Z,100650.66
2023-02-02T09:11:50.851Z,100644.34
2023-02-02T09:14:19.076Z,100644.95
2023-02-02T09:16:46.864Z,100642.37
2023-02-02T09:19:20.213Z,100637.89
2023-02-02T09:21:51.366Z,100638.14
2023-02-02T09:24:20.421Z,100638.40
2023-02-02T09:26:48.274Z,100633.57
2023-02-02T09:29:17.675Z,100629.55
2023-02-02T09:31:45.695Z,100628.02
2023-02-02T09:34:15.611Z,100627.89
2023-02-02T09:36:43.415Z,100621.58
2023-02-02T09:39:12.202Z,100612.24
2023-02-02T09:41:39.363Z,100609.40
2023-02-02T09:44:45.568Z,100602.54
2023-02-02T09:47:26.771Z,100598.69
2023-02-02T09:50:20.560Z,100594.66
2023-02-02T09:53:12.722Z,100593.14
2023-02-02T09:55:41.951Z,100590.94
2023-02-02T09:58:34.466Z,100587.91
2023-02-02T10:01:37.044Z,100586.40
2023-02-02T10:04:35.229Z,100579.34
2023-02-02T10:07:20.451Z,100579.80
2023-02-02T10:10:27.487Z,100579.39
2023-02-02T10:13:13.533Z,100580.80
2023-02-02T10:16:01.586Z,100577.86
2023-02-02T10:18:48.985Z,100574.46
2023-02-02T10:21:52.531Z,100571.40
2023-02-02T10:24:24.453Z,100570.45
2023-02-02T10:27:06.362Z,100568.67
2023-02-02T10:29:49.224Z,100564.77
2023-02-02T10:32:24.193Z,100561.35
2023-02-02T10:35:13.970Z,100565.55
2023-02-02T10:37:57.463Z,100564.18
2023-02-02T10:40:49.798Z,100559.33
2023-02-02T10:43:56.977Z,100555.68
2023-02-02T10:46:50.884Z,100555.60
2023-02-02T10:49:28.869Z,100553.88
2023-02-02T10:52:19.184Z,100553.17
2023-02-02T10:55:04.732Z,100549.61
2023-02-02T10:57:32.539Z,100548.30
2023-02-02T11:00:21.524Z,100553.51
2023-02-02T11:02:50.816Z,100548.80
2023-02-02T11:05:43.387Z,100550.16
2023-02-02T11:08:19.541Z,100552.66
2023-02-02T11:10:50.701Z,100550.21
2023-02-02T11:13:30.186Z,100546.24
2023-02-02T11:16:18.214Z,100547.95
2023-02-02T11:18:45.908Z,100543.45
2023-02-02T11:21:46.851Z,100540.19
2023-02-02T11:24:24.575Z,100544.61
2023-02-02T11:27:02.976Z,100540.86
2023-02-02T11:29:33.445Z,100540.39
2023-02-02T11:32:35.248Z,100544.59
2023-02-02T11:35:08.155Z,100545.17
2023-02-02T11:37:51.675Z,100547.73
2023-02-02T11:40:29.485Z,100545.58
2023-02-02T11:42:58.167Z,100549.57
2023-02-02T11:45:38.854Z,100547.22
2023-02-02T11:48:13.949Z,100544.61
2023-02-02T11:50:55.265Z,100546.11
2023-02-02T11:53:32.138Z,100543.50
2023-02-02T11:56:05.748Z,100544.11
2023-02-02T11:58:47.232Z,100544.77
2023-02-02T12:01:33.677Z,100544.22
2023-02-02T12:04:02.597Z,100539.63
2023-02-02T12:06:32.985Z,100540.20
2023-02-02T12:09:17.895Z,100537.95
2023-02-02T12:11:51.792Z,100543.67
2023-02-02T12:14:38.736Z,100541.11
2023-02-02T12:17:42.051Z,100543.59
2023-02-02T12:20:19.629Z,100547.17
2023-02-02T12:23:15.801Z,100546.98
2023-02-02T12:25:51.919Z,100548.23
2023-02-02T12:28:49.372Z,100548.90
2023-02-02T12:31:35.838Z,100548.19
2023-02-02T12:34:21.154Z,100549.19
2023-02-02T12:37:16.439Z,100542.05
2023-02-02T12:39:50.756Z,100541.62
2023-02-02T12:42:35.952Z,100542.00
2023-02-02T12:45:26.641Z,100541.03
2023-02-02T12:47:54.066Z,100546.81
2023-02-02T12:50:50.578Z,100541.42
2023-02-02T12:53:31.640Z,100540.46
2023-02-02T12:56:20.344Z,100542.96
2023-02-02T12:59:06.063Z,100541.64
2023-02-02T13:01:59.297Z,100540.27
2023-02-02T13:05:16.006Z,100544.17
2023-02-02T13:07:45.913Z,100545.27
2023-02-02T13:10:19.158Z,100547.14
2023-02-02T13:12:51.227Z,100544.80
2023-02-02T13:15:24.158Z,100544.09
2023-02-02T13:17:55.971Z,100549.11
2023-02-02T13:20:36.847Z,100549.96
2023-02-02T13:23:09.223Z,100554.36
2023-02-02T13:25:41.142Z,100552.27
2023-02-02T13:28:10.409Z,100551.15
2023-02-02T13:30:38.291Z,100548.39
2023-02-02T13:33:15.440Z,100544.52
2023-02-02T13:35:56.257Z,100550.66
2023-02-02T13:38:24.648Z,100550.80
2023-02-02T13:40:54.943Z,100560.80
2023-02-02T13:43:31.153Z,100563.11
2023-02-02T13:46:44.559Z,100560.33
2023-02-02T13:49:12.787Z,100562.23
2023-02-02T13:52:07.659Z,100564.62
2023-02-02T13:54:56.796Z,100559.64
2023-02-02T13:57:56.454Z,100558.02
2023-02-02T14:00:25.166Z,100553.91
2023-02-02T14:02:57.062Z,100553.87
2023-02-02T14:05:28.253Z,100559.33
2023-02-02T14:08:07.920Z,100563.94
2023-02-02T14:10:42.668Z,100563.77
2023-02-02T14:13:34.855Z,100569.84
2023-02-02T14:16:05.140Z,100568.56
2023-02-02T14:19:00.599Z,100563.95
2023-02-02T14:21:31.813Z,100566.38
2023-02-02T14:24:41.464Z,100564.08
2023-02-02T14:27:08.755Z,100563.78
2023-02-02T14:29:46.822Z,100564.84
2023-02-02T14:32:29.460Z,100565.40
2023-02-02T14:35:15.951Z,100562.52
2023-02-02T14:37:49.981Z,100565.05
2023-02-02T14:40:42.385Z,100563.31
2023-02-02T14:43:42.335Z,100567.17
2023-02-02T14:46:13.111Z,100569.92
2023-02-02T14:48:56.562Z,100572.77
2023-02-02T14:51:26.283Z,100574.59
2023-02-02T14:53:54.890Z,100573.59
2023-02-02T14:56:38.102Z,100573.23
2023-02-02T14:59:05.422Z,100571.19
2023-02-02T15:01:34.246Z,100575.69
2023-02-02T15:04:19.649Z,100578.90
2023-02-02T15:06:51.989Z,100581.46
2023-02-02T15:09:19.669Z,100585.46
2023-02-02T15:12:01.083Z,100587.08
2023-02-02T15:14:50.743Z,100591.56
2023-02-02T15:17:44.143Z,100596.80
2023-02-02T15:20:22.384Z,100596.57
2023-02-02T15:23:26.995Z,100596.09
2023-02-02T15:26:13.709Z,100599.14
2023-02-02T15:28:42.930Z,100602.24
2023-02-02T15:31:12.336Z,100605.89
2023-02-02T15:33:44.619Z,100603.34
2023-02-02T15:36:16.355Z,100606.37
2023-02-02T15:38:43.746Z,100601.52
2023-02-02T15:41:34.025Z,100604.05
2023-02-02T15:44:26.626Z,100611.19
2023-02-02T15:46:57.374Z,100611.59
2023-02-02T15:49:34.624Z,100607.58
2023-02-02T15:52:24.894Z,100606.75
2023-02-02T15:54:56.231Z,100611.33
2023-02-02T15:57:26.656Z,100609.00
2023-02-02T15:59:54.611Z,100610.21
2023-02-02T16:02:54.483Z,100614.92
2023-02-02T16:05:31.599Z,100614.38
2023-02-02T16:08:05.669Z,100619.52
2023-02-02T16:10:34.548Z,100623.06
2023-02-02T16:13:02.806Z,100623.20
2023-02-02T16:15:33.557Z,100626.16
2023-02-02T16:18:02.100Z,100629.98
2023-02-02T16:20:32.497Z,100632.89
2023-02-02T16:23:03.844Z,100634.43
2023-02-02T16:25:33.351Z,100636.48
2023-02-02T16:28:02.951Z,100641.65
2023-02-02T16:30:35.799Z,100646.78
2023-02-02T16:33:37.368Z,100642.02
2023-02-02T16:36:30.634Z,100645.18
2023-02-02T16:39:00.935Z,100652.02
2023-02-02T16:41:32.564Z,100651.59
2023-02-02T16:44:28.442Z,100653.21
2023-02-02T16:46:55.823Z,100655.92
2023-02-02T16:49:24.334Z,100660.05
2023-02-02T16:52:27.522Z,100663.56
2023-02-02T16:54:55.302Z,100664.36
2023-02-02T16:57:26.028Z,100669.15
2023-02-02T16:59:54.613Z,100663.35
2023-02-02T17:02:26.244Z,100665.81
2023-02-02T17:04:58.045Z,100668.75
2023-02-02T17:07:25.092Z,100674.87
2023-02-02T17:10:26.084Z,100673.19
2023-02-02T17:12:53.394Z,100675.08
2023-02-02T17:15:20.428Z,100679.95
2023-02-02T17:17:48.735Z,100683.04
2023-02-02T17:20:16.852Z,100685.75
2023-02-02T17:23:06.336Z,100687.52
2023-02-02T17:25:38.246Z,100690.02
2023-02-02T17:28:09.710Z,100691.48
2023-02-02T17:30:36.921Z,100691.52
2023-02-02T17:33:05.394Z,100686.80
2023-02-02T17:35:47.320Z,100684.44
2023-02-02T17:38:21.010Z,100688.64
2023-02-02T17:40:48.515Z,100687.77
2023-02-02T17:43:15.929Z,100686.92
2023-02-02T17:45:43.069Z,100686.81
2023-02-02T17:48:11.795Z,100685.11
2023-02-02T17:50:40.706Z,100687.83
2023-02-02T17:53:12.793Z,100683.48
2023-02-02T17:55:44.788Z,100686.05
2023-02-02T17:58:14.387Z,100683.77
2023-02-02T18:00:43.004Z,100686.07
2023-02-02T18:03:20.459Z,100685.33
2023-02-02T18:05:47.658Z,100685.71
2023-02-02T18:08:14.979Z,100687.14
2023-02-02T18:10:42.470Z,100684.16
2023-02-02T18:13:15.587Z,100682.61
2023-02-02T18:15:43.215Z,100684.25
2023-02-02T18:18:11.927Z,100681.43
2023-02-02T18:20:43.236Z,100680.94
2023-02-02T18:23:11.489Z,100685.34
2023-02-02T18:25:39.014Z,100687.98
2023-02-02T18:28:07.042Z,100687.03
2023-02-02T18:30:34.557Z,100689.19
2023-02-02T18:33:03.530Z,100690.52
2023-02-02T18:35:30.805Z,100696.10
2023-02-02T18:37:58.243Z,100694.81
2023-02-02T18:40:25.521Z,100696.35
2023-02-02T18:42:52.962Z,100695.25
2023-02-02T18:45:20.304Z,100698.67
2023-02-02T18:47:48.956Z,100701.54
2023-02-02T18:50:16.276Z,100704.39
2023-02-02T18:52:44.139Z,100702.42
2023-02-02T18:55:11.409Z,100700.23
2023-02-02T18:57:39.992Z,100700.48
2023-02-02T19:00:08.416Z,100698.09
2023-02-02T19:02:37.201Z,100699.75
2023-02-02T19:05:25.394Z,100699.11
2023-02-02T19:07:57.727Z,100699.27
2023-02-02T19:10:25.761Z,100698.50
2023-02-02T19:13:18.964Z,100696.63
2023-02-02T19:15:48.004Z,100696.02
2023-02-02T19:18:40.145Z,100696.00
2023-02-02T19:21:10.930Z,100700.83
2023-02-02T19:23:40.025Z,100702.54
2023-02-02T19:26:26.839Z,100703.30
2023-02-02T19:29:02.150Z,100711.34
2023-02-02T19:31:29.744Z,100707.15
2023-02-02T19:33:57.157Z,100707.95
2023-02-02T19:36:26.956Z,100714.34
2023-02-02T19:39:30.463Z,100714.77
2023-02-02T19:41:58.924Z,100719.02
2023-02-02T19:44:30.060Z,100716.90
2023-02-02T19:46:57.235Z,100719.55
2023-02-02T19:49:34.007Z,100717.53
2023-02-02T19:52:03.274Z,100720.21
2023-02-02T19:54:47.400Z,100715.77
2023-02-02T19:57:16.859Z,100720.63
2023-02-02T19:59:45.714Z,100719.92
2023-02-02T20:02:43.085Z,100718.88
2023-02-02T20:05:10.904Z,100719.23
2023-02-02T20:07:40.524Z,100722.83
2023-02-02T20:10:15.775Z,100723.44
2023-02-02T20:12:43.544Z,100718.50
2023-02-02T20:15:24.635Z,100720.28
2023-02-02T20:17:53.793Z,100722.59
2023-02-02T20:20:27.094Z,100722.75
2023-02-02T20:22:55.564Z,100721.16
2023-02-02T20:25:24.229Z,100721.19
2023-02-02T20:27:53.093Z,100720.86
2023-02-02T20:30:30.159Z,100725.73
2023-02-02T20:32:58.565Z,100730.05
2023-02-02T20:35:32.939Z,100734.14
2023-02-02T20:38:01.324Z,100736.27
2023-02-02T20:40:31.247Z,100737.14
2023-02-02T20:42:58.709Z,100735.98
2023-02-02T20:45:27.415Z,100734.58
2023-02-02T20:47:54.494Z,100738.00
2023-02-02T20:50:22.144Z,100737.27
2023-02-02T20:52:51.308Z,100738.44
2023-02-02T20:55:20.071Z,100740.27
2023-02-02T20:57:47.964Z,100739.63
2023-02-02T21:00:15.866Z,100742.48
2023-02-02T21:02:43.783Z,100741.64
2023-02-02T21:05:14.319Z,100743.79
2023-02-02T21:07:41.884Z,100749.35
2023-02-02T21:10:09.520Z,100756.75
2023-02-02T21:12:37.569Z,100753.85
2023-02-02T21:15:05.974Z,100753.22
2023-02-02T21:17:34.746Z,100757.05
2023-02-02T21:20:02.438Z,100761.09
2023-02-02T21:22:30.051Z,100765.14
2023-02-02T21:24:57.406Z,100764.80
2023-02-02T21:27:24.817Z,100762.84
2023-02-02T21:29:52.083Z,100767.23
2023-02-02T21:32:19.136Z,100762.23
2023-02-02T21:34:46.214Z,100760.90
2023-02-02T21:37:14.068Z,100760.16
2023-02-02T21:39:49.665Z,100757.25
2023-02-02T21:42:20.780Z,100760.56
2023-02-02T21:44:53.790Z,100762.73
2023-02-02T21:47:40.125Z,100761.30
2023-02-02T21:50:11.696Z,100762.38
2023-02-02T21:52:38.716Z,100761.29
2023-02-02T21:55:25.322Z,100759.11
2023-02-02T21:57:56.594Z,100760.79
2023-02-02T22:00:32.391Z,100758.33
2023-02-02T22:02:59.887Z,100759.16
2023-02-02T22:05:34.104Z,100758.45
2023-02-02T22:08:17.501Z,100755.84
2023-02-02T22:10:46.038Z,100750.98
2023-02-02T22:13:21.475Z,100751.30
2023-02-02T22:15:51.440Z,100750.50
2023-02-02T22:18:21.234Z,100754.23
2023-02-02T22:20:50.133Z,100759.98
2023-02-02T22:23:21.537Z,100759.27
2023-02-02T22:25:50.302Z,100755.81
2023-02-02T22:28:22.580Z,100753.50
2023-02-02T22:30:53.693Z,100747.94
2023-02-02T22:33:21.182Z,100747.89
2023-02-02T22:35:48.529Z,100748.41
2023-02-02T22:38:17.689Z,100749.66
2023-02-02T22:40:45.468Z,100749.69
2023-02-02T22:43:14.344Z,100748.69
2023-02-02T22:45:42.611Z,100752.81
2023-02-02T22:48:10.101Z,100754.41
2023-02-02T22:50:37.680Z,100751.94
2023-02-02T22:53:04.872Z,100751.29
2023-02-02T22:55:32.898Z,100750.98
2023-02-02T22:58:02.009Z,100748.70
2023-02-02T23:00:30.388Z,100746.23
2023-02-02T23:02:57.656Z,100749.38
2023-02-02T23:05:25.464Z,100747.73
2023-02-02T23:07:53.895Z,100749.10
2023-02-02T23:10:25.885Z,100748.06
2023-02-02T23:12:54.558Z,100746.84
2023-02-02T23:15:22.110Z,100744.34
2023-02-02T23:17:49.149Z,100749.21
2023-02-02T23:20:17.337Z,100750.38
2023-02-02T23:22:44.827Z,100750.34
2023-02-02T23:25:12.462Z,100748.83
2023-02-02T23:27:39.852Z,100750.59
2023-02-02T23:30:08.373Z,100746.33
2023-02-02T23:32:35.523Z,100744.50
2023-02-02T23:35:03.061Z,100742.95
2023-02-02T23:37:30.255Z,100740.30
2023-02-02T23:39:57.293Z,100745.52
2023-02-02T23:42:25.121Z,100747.34
2023-02-02T23:44:52.159Z,100748.72
2023-02-02T23:47:19.199Z,100749.77
2023-02-02T23:49:46.249Z,100751.15
2023-02-02T23:52:13.820Z,100752.69
2023-02-02T23:54:40.824Z,100755.48
2023-02-02T23:57:08.046Z,100756.07
2023-02-02T23:59:35.231Z,100756.19
